Time;durP1;ratioP1;P1;durP2;ratioP2;P2;SDS_P1;SDS_P2;PMS_P1;PMS_P2;Temp;Humidity;BMP_temperature;BMP_pressure;BME280_temperature;BME280_humidity;BME280_pressure;Samples;Min_cycle;Max_cycle;Signal;HPM_P1;HPM_P2
2022/09/04 00:00:29;;;;;;;8.52;6.90;;;;;;;19.04;66.30;101570.31;5086212;28;20901;-56
2022/09/04 00:03:25;;;;;;;7.75;6.75;;;;;;;19.06;66.31;101575.50;5084677;28;20378;-56
2022/09/04 00:05:55;;;;;;;8.32;6.70;;;;;;;19.06;66.18;101583.56;5084055;28;20413;-57
2022/09/04 00:08:31;;;;;;;8.38;6.95;;;;;;;19.00;66.20;101573.63;5085946;28;20383;-57
2022/09/04 00:11:53;;;;;;;9.10;6.80;;;;;;;19.12;66.12;101580.03;5096970;27;20402;-57
2022/09/04 00:14:28;;;;;;;7.75;6.85;;;;;;;19.20;65.69;101589.78;5095344;28;20396;-57
2022/09/04 00:17:02;;;;;;;10.65;6.85;;;;;;;19.25;65.59;101592.69;5094237;28;20445;-57
2022/09/04 00:21:43;;;;;;;8.35;7.03;;;;;;;19.20;65.73;101598.66;5087574;27;20486;-59
2022/09/04 00:24:18;;;;;;;9.95;7.07;;;;;;;19.29;65.65;101597.41;5083538;28;20398;-57
2022/09/04 00:27:04;;;;;;;7.93;6.75;;;;;;;19.26;65.25;101592.44;5086279;28;20371;-56
2022/09/04 00:29:29;;;;;;;9.20;7.00;;;;;;;19.21;65.43;101600.34;5083813;28;20865;-56
2022/09/04 00:32:37;;;;;;;7.90;7.10;;;;;;;19.22;65.33;101609.22;5086185;28;20378;-56
2022/09/04 00:35:31;;;;;;;9.57;7.13;;;;;;;19.24;65.43;101612.53;5062504;28;20402;-55
2022/09/04 00:37:59;;;;;;;8.57;7.47;;;;;;;19.27;65.52;101618.31;5084611;28;20930;-56
2022/09/04 00:40:42;;;;;;;8.83;6.87;;;;;;;19.38;65.36;101624.94;5085506;28;20433;-56
2022/09/04 00:43:13;;;;;;;8.38;7.50;;;;;;;19.39;65.18;101621.22;5083160;28;20382;-57
2022/09/04 00:46:08;;;;;;;8.35;7.43;;;;;;;19.29;65.32;101616.25;5086038;28;20453;-56
2022/09/04 00:48:52;;;;;;;9.97;7.07;;;;;;;19.31;65.29;101613.34;5083728;28;20386;-56
2022/09/04 00:51:35;;;;;;;8.40;7.28;;;;;;;19.23;65.43;101611.69;5084192;28;20927;-56
2022/09/04 00:54:16;;;;;;;8.95;7.10;;;;;;;19.25;65.38;101611.50;5085165;28;20787;-56
2022/09/04 00:56:53;;;;;;;10.30;7.17;;;;;;;19.22;65.50;101618.09;5084845;28;20374;-56
2022/09/04 00:59:45;;;;;;;9.43;7.47;;;;;;;19.24;65.44;101616.03;5084378;28;20472;-58
2022/09/04 01:03:21;;;;;;;7.82;6.55;;;;;;;19.19;65.52;101612.31;5087480;27;20811;-57
2022/09/04 01:06:21;;;;;;;10.32;7.38;;;;;;;19.20;65.44;101614.78;5086286;28;20404;-57
2022/09/04 01:09:24;;;;;;;8.73;6.60;;;;;;;19.15;65.42;101611.88;5085851;28;20386;-57
2022/09/04 01:12:18;;;;;;;9.10;6.50;;;;;;;19.05;65.61;101612.31;5078511;28;20466;-56
2022/09/04 01:15:33;;;;;;;9.90;6.93;;;;;;;19.00;65.58;101613.94;5082569;28;20410;-57
2022/09/04 01:18:17;;;;;;;8.50;6.85;;;;;;;18.85;65.73;101627.53;5065985;28;20519;-56
2022/09/04 01:21:05;;;;;;;8.40;6.93;;;;;;;18.85;65.80;101614.09;5085232;28;20383;-55
2022/09/04 01:23:52;;;;;;;9.47;6.63;;;;;;;18.87;65.58;101609.34;5082825;28;20393;-56
2022/09/04 01:27:35;;;;;;;8.02;6.65;;;;;;;18.86;65.42;101616.59;5087349;27;20459;-57
2022/09/04 01:30:11;;;;;;;9.50;6.85;;;;;;;18.87;65.63;101618.25;5068870;28;20927;-57
2022/09/04 01:32:52;;;;;;;7.22;6.15;;;;;;;18.94;65.38;101617.44;5070543;28;20398;-57
2022/09/04 01:35:56;;;;;;;9.93;6.88;;;;;;;18.93;65.27;101619.28;5071221;28;20411;-59
2022/09/04 01:38:53;;;;;;;8.50;7.00;;;;;;;18.87;65.27;101617.41;5047834;28;20410;-56
2022/09/04 01:41:55;;;;;;;9.30;7.18;;;;;;;18.70;65.54;101620.44;5034800;28;20416;-57
2022/09/04 01:44:22;;;;;;;9.10;6.88;;;;;;;18.61;65.83;101618.13;5031005;28;20423;-56
2022/09/04 01:46:57;;;;;;;10.70;7.28;;;;;;;18.61;66.12;101624.31;5033260;28;20434;-57
2022/09/04 01:49:22;;;;;;;11.47;7.23;;;;;;;18.64;65.83;101605.13;5033619;28;20470;-56
2022/09/04 01:52:06;;;;;;;9.68;7.32;;;;;;;18.66;65.59;101613.81;5031076;28;20530;-57
2022/09/04 01:54:52;;;;;;;15.10;7.50;;;;;;;18.67;65.71;101614.63;5031943;28;20381;-57
2022/09/04 01:57:18;;;;;;;9.50;7.30;;;;;;;18.68;65.74;101610.94;5032101;28;20431;-57
2022/09/04 01:59:43;;;;;;;9.83;6.97;;;;;;;18.76;65.67;101612.59;5032149;28;20889;-55
2022/09/04 02:02:16;;;;;;;10.25;7.15;;;;;;;18.75;65.78;101621.72;5033049;28;20391;-57
2022/09/04 02:06:56;;;;;;;8.93;7.72;;;;;;;18.79;65.38;101629.13;5045823;28;20463;-55
2022/09/04 02:09:45;;;;;;;8.65;7.53;;;;;;;18.70;65.46;101622.28;5025410;28;20406;-57
2022/09/04 02:12:19;;;;;;;10.07;8.07;;;;;;;18.66;65.63;101615.69;5027972;28;20387;-56
2022/09/04 02:15:30;;;;;;;9.80;8.20;;;;;;;18.70;65.72;101630.34;5025916;28;20397;-56
2022/09/04 02:19:00;;;;;;;10.55;7.75;;;;;;;18.66;65.85;101631.78;5043554;28;20413;-56
2022/09/04 02:21:35;;;;;;;11.13;8.05;;;;;;;18.61;66.04;101618.13;5034960;28;20397;-56
2022/09/04 02:26:59;;;;;;;16.50;8.93;;;;;;;18.70;65.69;101627.66;5085806;27;20410;-56
2022/09/04 02:31:41;;;;;;;10.95;9.05;;;;;;;18.49;66.27;101626.78;5090812;27;2065810;-57
2022/09/04 02:36:28;;;;;;;14.43;9.65;;;;;;;18.46;66.59;101620.97;5085254;27;20406;-57
2022/09/04 02:39:12;;;;;;;14.23;9.93;;;;;;;18.38;66.61;101619.28;5072445;28;20498;-57
2022/09/04 02:41:51;;;;;;;12.67;9.70;;;;;;;18.31;67.01;101618.41;5073866;28;20387;-57
2022/09/04 02:47:05;;;;;;;12.63;10.25;;;;;;;18.17;67.38;101612.16;5086133;27;20827;-57
2022/09/04 02:49:49;;;;;;;11.20;9.43;;;;;;;18.17;67.44;101603.28;5062310;28;20491;-56
2022/09/04 02:52:48;;;;;;;11.47;9.27;;;;;;;18.19;67.51;101620.03;5065900;28;20383;-57
2022/09/04 02:56:59;;;;;;;12.48;10.02;;;;;;;18.20;67.30;101608.25;5046405;28;20478;-60
2022/09/04 02:59:40;;;;;;;12.38;10.10;;;;;;;18.21;67.36;101615.28;5033947;28;20414;-56
2022/09/04 03:02:30;;;;;;;14.57;9.95;;;;;;;18.29;67.11;101621.31;5032774;28;20530;-56
2022/09/04 03:05:24;;;;;;;13.80;10.32;;;;;;;18.24;67.14;101620.22;5030908;28;20401;-57
2022/09/04 03:08:28;;;;;;;13.98;10.20;;;;;;;18.24;67.28;101612.19;5034208;28;20759;-57
2022/09/04 03:11:05;;;;;;;11.82;9.60;;;;;;;18.31;67.01;101626.47;5029317;28;20407;-58
2022/09/04 03:15:54;;;;;;;12.60;9.32;;;;;;;18.43;66.84;101624.06;5084436;27;20412;-57
2022/09/04 03:19:25;;;;;;;11.40;9.13;;;;;;;18.42;66.78;101625.91;5086099;27;20398;-57
2022/09/04 03:21:50;;;;;;;11.52;9.65;;;;;;;18.42;66.62;101631.28;5072151;28;20387;-58
2022/09/04 03:26:49;;;;;;;10.63;8.80;;;;;;;18.33;66.85;101638.69;5083075;27;20827;-57
2022/09/04 03:31:46;;;;;;;11.25;9.32;;;;;;;18.29;66.67;101629.38;5048300;28;20409;-57
2022/09/04 03:35:42;;;;;;;11.95;9.20;;;;;;;18.17;66.78;101638.16;5064447;28;20400;-57
2022/09/04 03:38:13;;;;;;;10.38;9.25;;;;;;;18.22;66.91;101646.44;5052975;28;20868;-57
2022/09/04 03:40:41;;;;;;;11.48;9.02;;;;;;;18.18;67.09;101645.19;5053262;28;20377;-57
2022/09/04 03:43:37;;;;;;;12.63;9.47;;;;;;;18.05;67.73;101627.16;5053292;28;20762;-58
2022/09/04 03:46:18;;;;;;;11.83;9.43;;;;;;;18.17;67.23;101640.84;5053154;28;20385;-56
2022/09/04 03:51:24;;;;;;;12.25;10.10;;;;;;;18.18;67.31;101627.22;5046720;28;20413;-57
2022/09/04 03:54:27;;;;;;;11.10;9.52;;;;;;;18.21;67.20;101640.25;5036096;28;20412;-57
2022/09/04 03:57:05;;;;;;;11.77;9.40;;;;;;;18.20;67.27;101635.91;5033235;28;20383;-57
2022/09/04 04:01:40;;;;;;;11.73;9.15;;;;;;;18.30;67.04;101655.16;5085595;27;20835;-57
2022/09/04 04:04:34;;;;;;;12.13;9.57;;;;;;;18.30;66.84;101654.34;5065230;28;20396;-56
2022/09/04 04:07:27;;;;;;;12.45;10.02;;;;;;;18.30;66.84;101667.78;5065892;28;20387;-57
2022/09/04 04:10:12;;;;;;;11.55;9.95;;;;;;;18.34;66.87;101669.84;5063551;28;20976;-57
2022/09/04 04:13:03;;;;;;;13.37;9.87;;;;;;;18.34;66.84;101674.38;5065861;28;20446;-56
2022/09/04 04:15:50;;;;;;;12.95;9.32;;;;;;;18.34;66.56;101677.06;5065403;28;20383;-56
2022/09/04 04:18:36;;;;;;;12.32;9.00;;;;;;;18.46;66.26;101675.50;5065518;28;20415;-56
2022/09/04 04:21:33;;;;;;;9.47;8.37;;;;;;;18.48;66.01;101678.81;5065481;28;20419;-56
2022/09/04 04:24:38;;;;;;;9.27;8.18;;;;;;;18.47;66.04;101687.06;5064217;28;20380;-56
2022/09/04 04:28:58;;;;;;;9.90;7.85;;;;;;;18.62;65.56;101694.97;5066521;28;20404;-57
2022/09/04 04:32:10;;;;;;;11.77;8.85;;;;;;;18.62;65.29;101689.59;5055381;28;20402;-57
2022/09/04 04:35:24;;;;;;;8.73;7.82;;;;;;;18.47;65.58;101698.63;5053391;28;20390;-57
2022/09/04 04:38:23;;;;;;;8.25;7.45;;;;;;;18.53;65.51;101713.94;5049880;28;20472;-57
2022/09/04 04:41:07;;;;;;;9.15;8.00;;;;;;;18.60;65.19;101697.88;5053840;28;20387;-58
2022/09/04 04:43:35;;;;;;;8.75;7.35;;;;;;;18.68;64.99;101705.75;5056694;28;20384;-57
2022/09/04 04:46:16;;;;;;;8.00;7.10;;;;;;;18.63;65.10;101708.19;5051510;28;20776;-57
2022/09/04 04:49:03;;;;;;;10.63;7.50;;;;;;;18.52;65.24;101719.50;5054152;28;20425;-57
2022/09/04 04:51:56;;;;;;;8.52;7.55;;;;;;;18.50;65.24;101711.66;5054310;28;20380;-60
2022/09/04 04:55:52;;;;;;;9.75;8.50;;;;;;;18.55;65.20;101724.50;5046583;28;20410;-57
2022/09/04 04:58:23;;;;;;;10.32;8.70;;;;;;;18.59;65.21;101720.38;5035816;28;20395;-57
2022/09/04 05:01:08;;;;;;;9.95;8.75;;;;;;;18.54;65.31;101720.13;5033180;28;20470;-56
2022/09/04 05:04:05;;;;;;;10.82;8.55;;;;;;;18.63;65.50;101729.69;5031003;28;20915;-57
2022/09/04 05:06:45;;;;;;;10.45;8.55;;;;;;;18.71;65.33;101728.72;5031107;28;20403;-57
2022/09/04 05:09:24;;;;;;;11.63;8.88;;;;;;;18.73;65.37;101727.47;5034965;28;20547;-57
2022/09/04 05:12:05;;;;;;;10.18;8.80;;;;;;;18.56;65.60;101715.41;5032556;28;21007;-56
2022/09/04 05:14:55;;;;;;;11.57;9.10;;;;;;;18.54;65.85;101718.28;5032463;28;20429;-57
2022/09/04 05:17:23;;;;;;;11.82;9.02;;;;;;;18.55;65.78;101724.50;5036470;28;20466;-57
2022/09/04 05:20:58;;;;;;;11.60;9.30;;;;;;;18.53;65.94;101730.06;5085295;28;20460;-58
2022/09/04 05:23:53;;;;;;;12.40;9.40;;;;;;;18.53;66.00;101742.66;5086865;28;20390;-57
2022/09/04 05:27:08;;;;;;;11.30;9.07;;;;;;;18.47;66.08;101741.56;5086752;28;20504;-57
2022/09/04 05:30:07;;;;;;;11.18;8.77;;;;;;;18.53;66.21;101746.16;5085628;28;20411;-59
2022/09/04 05:32:45;;;;;;;11.55;8.90;;;;;;;18.64;65.75;101741.28;5085891;28;20851;-57
2022/09/04 05:36:15;;;;;;;12.20;9.00;;;;;;;18.66;65.75;101749.97;5106266;27;20401;-57
2022/09/04 05:39:07;;;;;;;12.65;9.10;;;;;;;18.56;65.83;101755.66;5107227;28;20384;-58
2022/09/04 05:41:48;;;;;;;11.23;9.10;;;;;;;18.49;65.80;101747.59;5107189;28;20369;-56
2022/09/04 05:44:34;;;;;;;10.73;8.88;;;;;;;18.49;65.96;101744.06;5106821;28;20739;-57
2022/09/04 05:47:26;;;;;;;11.50;9.30;;;;;;;18.55;65.92;101754.03;5106850;28;20512;-57
2022/09/04 05:50:21;;;;;;;10.75;8.50;;;;;;;18.63;65.79;101747.66;5106708;28;20480;-57
2022/09/04 05:52:59;;;;;;;9.82;8.30;;;;;;;18.57;65.76;101751.16;5099264;28;20402;-59
2022/09/04 05:55:30;;;;;;;10.77;8.68;;;;;;;18.43;66.04;101748.38;5086463;28;20414;-57
2022/09/04 05:58:21;;;;;;;9.93;8.53;;;;;;;18.47;66.29;101746.13;5086123;28;20415;-57
2022/09/04 06:01:24;;;;;;;9.77;8.50;;;;;;;18.50;66.00;101737.69;5086430;28;20469;-57
2022/09/04 06:04:20;;;;;;;10.35;8.73;;;;;;;18.51;66.12;101742.00;5086277;28;20390;-57
2022/09/04 06:07:25;;;;;;;10.30;8.43;;;;;;;18.52;66.38;101733.75;5086025;28;20922;-56
2022/09/04 06:10:13;;;;;;;10.97;8.70;;;;;;;18.61;66.15;101741.66;5086250;28;20461;-59
2022/09/04 06:12:57;;;;;;;9.90;8.52;;;;;;;18.60;66.11;101738.16;5084849;28;20425;-57
2022/09/04 06:15:31;;;;;;;9.15;8.13;;;;;;;18.61;66.26;101742.47;5085845;28;20410;-56
2022/09/04 06:18:17;;;;;;;10.57;8.50;;;;;;;18.57;66.27;101743.09;5086168;28;20390;-57
2022/09/04 06:20:54;;;;;;;12.55;9.23;;;;;;;18.60;66.00;101743.53;5086195;28;20418;-57
2022/09/04 06:23:40;;;;;;;10.70;8.75;;;;;;;18.65;65.90;101748.28;5086067;28;21030;-58
2022/09/04 06:26:26;;;;;;;11.07;8.30;;;;;;;18.71;66.25;101748.34;5084559;28;20398;-56
2022/09/04 06:29:01;;;;;;;12.63;9.00;;;;;;;18.72;66.11;101755.34;5085499;28;20415;-58
2022/09/04 06:32:03;;;;;;;10.23;8.88;;;;;;;18.60;66.47;101748.06;5066899;28;20999;-57
2022/09/04 06:34:40;;;;;;;12.00;9.43;;;;;;;18.61;66.54;101761.28;5065334;28;20423;-56
2022/09/04 06:37:35;;;;;;;12.77;9.23;;;;;;;18.67;66.05;101762.34;5064122;28;20396;-57
2022/09/04 06:40:33;;;;;;;12.77;9.93;;;;;;;18.74;65.96;101763.22;5056285;28;20525;-57
2022/09/04 06:43:37;;;;;;;10.32;9.20;;;;;;;18.78;65.61;101769.00;5065088;28;20475;-57
2022/09/04 06:46:11;;;;;;;11.75;9.50;;;;;;;18.71;65.84;101761.75;5036989;28;20392;-57
2022/09/04 06:49:09;;;;;;;11.40;9.10;;;;;;;18.75;65.88;101772.13;5052064;28;20535;-60
2022/09/04 06:51:56;;;;;;;11.90;9.35;;;;;;;18.63;65.95;101763.78;5051943;28;20381;-54
2022/09/04 06:55:01;;;;;;;11.35;9.05;;;;;;;18.72;65.87;101760.72;5051800;28;20496;-53
2022/09/04 06:57:29;;;;;;;11.63;9.23;;;;;;;18.71;65.99;101759.06;5009480;28;20480;-55
2022/09/04 07:00:03;;;;;;;10.73;9.02;;;;;;;18.73;66.00;101756.19;5044693;28;20416;-53
2022/09/04 07:03:32;;;;;;;11.48;9.20;;;;;;;18.72;65.97;101762.59;5065566;28;20404;-54
2022/09/04 07:06:20;;;;;;;11.83;9.13;;;;;;;18.80;65.83;101761.59;5050992;28;20401;-54
2022/09/04 07:09:21;;;;;;;9.98;8.32;;;;;;;18.94;65.29;101775.94;5043862;28;20378;-53
2022/09/04 07:12:13;;;;;;;10.85;8.23;;;;;;;18.99;64.90;101768.94;5043849;28;20389;-53
2022/09/04 07:14:57;;;;;;;9.60;8.38;;;;;;;18.94;64.86;101763.34;5045408;28;20435;-56
2022/09/04 07:17:32;;;;;;;10.18;8.10;;;;;;;18.96;64.95;101766.69;5043141;28;20473;-53
2022/09/04 07:20:14;;;;;;;10.57;9.00;;;;;;;18.99;64.91;101770.81;5040583;28;20406;-53
2022/09/04 07:22:55;;;;;;;11.82;8.73;;;;;;;18.93;65.09;101769.75;5041522;28;20409;-55
2022/09/04 07:25:26;;;;;;;10.02;8.50;;;;;;;18.97;65.03;101768.31;5040245;28;20397;-55
2022/09/04 07:28:17;;;;;;;12.43;9.03;;;;;;;18.95;64.81;101772.25;5039152;28;20398;-55
2022/09/04 07:31:02;;;;;;;12.00;9.45;;;;;;;18.89;65.11;101772.00;5040552;28;20475;-55
2022/09/04 07:33:43;;;;;;;10.77;9.30;;;;;;;18.93;64.75;101775.13;5040038;28;20444;-53
2022/09/04 07:36:24;;;;;;;11.43;8.88;;;;;;;18.94;64.71;101784.00;5037909;28;20451;-55
2022/09/04 07:39:06;;;;;;;11.50;8.73;;;;;;;19.08;64.19;101781.19;5038255;28;20392;-54
2022/09/04 07:41:36;;;;;;;10.00;8.40;;;;;;;19.18;63.94;101791.56;5042982;28;20416;-54
2022/09/04 07:44:12;;;;;;;11.38;8.57;;;;;;;19.17;63.74;101789.91;5040756;28;20421;-55
2022/09/04 07:47:00;;;;;;;10.57;9.00;;;;;;;19.31;63.30;101796.16;5038239;28;20392;-55
2022/09/04 07:49:35;;;;;;;12.10;8.60;;;;;;;19.44;62.93;101803.44;5034522;28;20395;-55
2022/09/04 07:52:10;;;;;;;11.43;8.48;;;;;;;19.48;62.73;101794.78;5040297;28;20474;-53
2022/09/04 07:55:04;;;;;;;9.48;8.10;;;;;;;19.65;62.14;101800.59;5040821;28;20389;-54
2022/09/04 07:57:47;;;;;;;11.47;8.17;;;;;;;19.68;62.09;101807.44;5042432;28;20938;-53
2022/09/04 08:00:19;;;;;;;11.95;8.25;;;;;;;19.55;62.30;101805.53;5040808;28;20386;-53
2022/09/04 08:05:43;;;;;;;9.75;7.65;;;;;;;19.61;62.21;101815.50;5043957;28;20409;-54
2022/09/04 08:08:41;;;;;;;9.05;7.40;;;;;;;19.63;61.99;101818.81;5073156;27;2065648;-53
2022/09/04 08:11:14;;;;;;;11.55;7.70;;;;;;;19.61;61.86;101820.88;5136392;27;20383;-54
2022/09/04 08:14:00;;;;;;;9.43;7.70;;;;;;;19.74;61.69;101819.28;5135303;27;20447;-53
2022/09/04 08:16:55;;;;;;;8.25;6.90;;;;;;;19.86;61.15;101820.31;5127039;28;20460;-53
2022/09/04 08:20:01;;;;;;;7.75;6.75;;;;;;;19.98;60.87;101820.56;5120486;28;20764;-54
2022/09/04 08:22:44;;;;;;;7.90;6.57;;;;;;;19.97;60.86;101818.88;5094981;28;20876;-54
2022/09/04 08:25:24;;;;;;;8.95;6.63;;;;;;;19.93;60.71;101826.53;5121226;28;20486;-52
2022/09/04 08:28:36;;;;;;;8.50;7.13;;;;;;;19.95;60.46;101824.50;5117347;28;20407;-54
2022/09/04 08:31:20;;;;;;;7.32;6.32;;;;;;;20.01;60.29;101822.84;5109526;28;20402;-55
2022/09/04 08:33:58;;;;;;;8.75;7.03;;;;;;;19.94;60.49;101822.00;5122482;27;20399;-54
2022/09/04 08:36:36;;;;;;;9.30;6.72;;;;;;;19.93;60.61;101820.34;5122192;28;20876;-54
2022/09/04 08:39:34;;;;;;;7.68;6.63;;;;;;;19.98;60.34;101828.63;5118626;28;20383;-55
2022/09/04 08:42:24;;;;;;;7.00;6.30;;;;;;;20.04;60.28;101830.47;5087539;28;20884;-54
2022/09/04 08:49:58;;;;;;;7.38;6.55;;;;;;;20.04;60.01;101817.03;5034864;28;20411;-54
2022/09/04 08:52:51;;;;;;;8.32;6.32;;;;;;;20.03;59.84;101804.63;5024339;28;20422;-53
2022/09/04 08:55:38;;;;;;;8.98;6.63;;;;;;;20.12;59.85;101816.03;5022891;28;20403;-55
2022/09/04 08:58:25;;;;;;;7.43;6.40;;;;;;;20.07;59.76;101811.25;5023123;28;20399;-53
2022/09/04 09:01:19;;;;;;;7.40;6.40;;;;;;;20.11;59.90;101820.56;5021662;28;20406;-55
2022/09/04 09:04:23;;;;;;;8.23;7.10;;;;;;;20.14;60.14;101808.56;5022387;28;20937;-56
2022/09/04 09:07:06;;;;;;;8.07;6.25;;;;;;;20.34;59.64;101820.16;5022904;28;21306;-53
2022/09/04 09:09:32;;;;;;;9.02;6.40;;;;;;;20.41;59.23;101830.91;5024335;28;20439;-55
2022/09/04 09:12:16;;;;;;;9.33;7.23;;;;;;;20.38;59.18;101831.31;5022469;28;20474;-57
2022/09/04 09:15:18;;;;;;;8.40;7.50;;;;;;;20.34;59.58;101843.56;5020127;28;20471;-55
2022/09/04 09:17:53;;;;;;;10.90;7.68;;;;;;;20.09;60.12;101857.63;5022807;28;20781;-53
2022/09/04 09:20:28;;;;;;;9.43;7.65;;;;;;;20.02;60.10;101852.25;5020222;28;20396;-53
2022/09/04 09:23:15;;;;;;;9.15;7.47;;;;;;;20.05;59.86;101853.69;5023873;28;20391;-55
2022/09/04 09:25:56;;;;;;;8.57;6.90;;;;;;;20.11;59.92;101847.47;5023958;28;20400;-54
2022/09/04 09:28:49;;;;;;;7.70;6.83;;;;;;;20.15;59.72;101847.88;5023455;28;20928;-52
2022/09/04 09:31:49;;;;;;;7.47;6.50;;;;;;;20.16;59.46;101845.00;5019685;28;20414;-56
2022/09/04 09:34:37;;;;;;;8.25;6.13;;;;;;;20.17;59.39;101843.97;5019803;28;20527;-53
2022/09/04 09:37:30;;;;;;;7.25;6.03;;;;;;;20.14;59.72;101849.75;5023699;28;20413;-53
2022/09/04 09:40:24;;;;;;;8.20;6.70;;;;;;;20.14;59.47;101830.09;5024286;28;20408;-55
2022/09/04 09:43:13;;;;;;;7.40;6.68;;;;;;;20.13;59.80;101839.19;5023489;28;20537;-53
2022/09/04 09:45:58;;;;;;;8.02;6.50;;;;;;;20.18;59.64;101837.53;5022696;28;20402;-51
2022/09/04 09:48:45;;;;;;;8.63;6.50;;;;;;;20.26;59.41;101836.53;5018337;28;20470;-52
2022/09/04 09:51:37;;;;;;;7.13;6.03;;;;;;;20.20;59.22;101830.09;5022777;28;20467;-51
2022/09/04 09:54:27;;;;;;;7.20;6.00;;;;;;;20.18;59.11;101823.25;5018244;28;20404;-53
2022/09/04 09:57:14;;;;;;;6.77;6.03;;;;;;;20.17;59.32;101818.91;5023124;28;20396;-54
2022/09/04 09:59:57;;;;;;;7.10;6.37;;;;;;;20.09;59.24;101832.56;5017718;28;20455;-53
2022/09/04 10:02:56;;;;;;;7.30;6.43;;;;;;;20.08;59.06;101837.13;5006493;28;20416;-54
2022/09/04 10:05:43;;;;;;;7.65;5.85;;;;;;;20.17;58.88;101835.06;5008198;28;20404;-57
2022/09/04 10:08:11;;;;;;;7.95;5.82;;;;;;;20.24;58.64;101843.97;5009105;28;20411;-54
2022/09/04 10:11:08;;;;;;;7.53;6.00;;;;;;;20.22;58.58;101846.03;5010859;28;20384;-53
2022/09/04 10:14:13;;;;;;;8.00;5.55;;;;;;;20.27;58.29;101858.88;5010831;28;20420;-54
2022/09/04 10:17:14;;;;;;;7.73;6.40;;;;;;;20.23;58.39;101867.38;5008072;28;21222;-54
2022/09/04 10:20:19;;;;;;;8.05;6.25;;;;;;;20.34;58.09;101876.69;4984151;28;20598;-54
2022/09/04 10:23:16;;;;;;;7.72;6.47;;;;;;;20.41;57.86;101861.38;5025773;28;20503;-57
2022/09/04 10:25:44;;;;;;;6.90;6.10;;;;;;;20.49;57.52;101856.81;5027341;28;20406;-57
2022/09/04 10:28:24;;;;;;;6.90;5.97;;;;;;;20.58;57.46;101872.56;5020617;28;20413;-56
2022/09/04 10:31:31;;;;;;;6.60;6.00;;;;;;;20.58;57.22;101861.78;5017472;28;20407;-59
2022/09/04 10:35:08;;;;;;;6.35;5.55;;;;;;;20.70;57.13;101855.78;5014939;28;20796;-56
2022/09/04 10:37:36;;;;;;;5.90;5.30;;;;;;;20.65;57.60;101856.41;4956950;28;20401;-58
2022/09/04 10:40:49;;;;;;;5.93;5.32;;;;;;;20.49;57.74;101856.81;5026532;28;20828;-57
2022/09/04 10:44:02;;;;;;;6.53;5.55;;;;;;;20.62;57.88;101851.47;4982096;28;20403;-54
2022/09/04 10:46:57;;;;;;;5.88;5.28;;;;;;;20.53;57.97;101852.69;4895199;28;20429;-57
2022/09/04 10:49:58;;;;;;;5.93;5.32;;;;;;;20.50;57.83;101853.91;5016044;28;20493;-57
2022/09/04 10:53:00;;;;;;;5.70;5.05;;;;;;;20.35;58.02;101854.13;5015651;28;20420;-57
2022/09/04 10:55:58;;;;;;;5.83;5.33;;;;;;;20.46;57.66;101847.28;5021082;28;20466;-57
2022/09/04 10:58:38;;;;;;;5.82;4.80;;;;;;;20.51;57.69;101836.72;4989289;28;20410;-58
2022/09/04 11:01:16;;;;;;;5.30;4.80;;;;;;;20.49;57.76;101849.56;4989481;28;20417;-58
2022/09/04 11:03:52;;;;;;;5.60;5.05;;;;;;;20.55;57.77;101843.34;4990148;28;20398;-57
2022/09/04 11:06:46;;;;;;;6.00;5.25;;;;;;;20.57;57.55;101848.53;4989578;28;20404;-56
2022/09/04 11:09:17;;;;;;;6.57;4.55;;;;;;;20.53;57.59;101853.50;4987999;28;20504;-57
2022/09/04 11:12:04;;;;;;;5.27;4.70;;;;;;;20.50;56.90;101832.34;4986328;28;20397;-57
2022/09/04 11:14:47;;;;;;;5.77;4.23;;;;;;;20.53;56.84;101821.19;4985055;28;20401;-57
2022/09/04 11:17:54;;;;;;;4.50;4.10;;;;;;;20.52;56.76;101806.03;4986009;28;20411;-58
2022/09/04 11:20:22;;;;;;;4.97;4.38;;;;;;;20.61;56.72;101817.47;4983079;28;20402;-57
2022/09/04 11:23:05;;;;;;;6.03;4.68;;;;;;;20.54;56.79;101816.59;4990023;28;20490;-57
2022/09/04 11:25:41;;;;;;;5.18;4.68;;;;;;;20.62;56.72;101827.22;4984479;28;20408;-58
2022/09/04 11:29:09;;;;;;;5.70;4.37;;;;;;;20.66;56.84;101827.63;4989883;28;20962;-57
2022/09/04 11:32:01;;;;;;;5.65;4.45;;;;;;;20.76;56.46;101830.69;4967882;28;20453;-58
2022/09/04 11:35:12;;;;;;;4.85;4.20;;;;;;;20.71;56.49;101828.63;4985571;28;20492;-57
2022/09/04 11:38:23;;;;;;;5.30;4.15;;;;;;;20.76;56.30;101826.16;4973230;28;20480;-57
2022/09/04 11:41:29;;;;;;;4.10;3.70;;;;;;;20.55;56.47;101818.28;4978686;28;20398;-58
2022/09/04 11:44:01;;;;;;;4.10;3.70;;;;;;;20.62;56.47;101828.03;4994717;28;20440;-56
2022/09/04 11:46:46;;;;;;;4.17;3.77;;;;;;;20.68;56.31;101820.97;4991096;28;20464;-57
2022/09/04 11:49:14;;;;;;;4.25;3.55;;;;;;;20.69;56.28;101811.84;4988527;28;20438;-57
2022/09/04 11:52:12;;;;;;;4.18;3.78;;;;;;;20.73;56.40;101817.66;4985547;28;20460;-57
2022/09/04 11:55:02;;;;;;;4.22;3.70;;;;;;;20.80;56.29;101813.91;4978137;28;20429;-57
2022/09/04 11:58:02;;;;;;;5.63;3.50;;;;;;;21.01;55.81;101817.34;4989119;28;20469;-59
2022/09/04 12:00:49;;;;;;;3.70;3.27;;;;;;;21.09;55.52;101817.13;5002254;28;20428;-57
2022/09/04 12:03:35;;;;;;;3.72;3.40;;;;;;;21.09;55.26;101813.63;4986765;28;20389;-57
2022/09/04 12:06:34;;;;;;;3.83;3.40;;;;;;;20.98;55.26;101824.00;4986116;28;20444;-57
2022/09/04 12:09:14;;;;;;;3.67;3.38;;;;;;;21.00;54.90;101816.53;4987358;28;20781;-56
2022/09/04 12:12:07;;;;;;;4.05;3.35;;;;;;;21.09;54.85;101817.13;4987763;28;20385;-57
2022/09/04 12:14:50;;;;;;;3.97;3.20;;;;;;;21.05;54.62;101806.97;4988205;28;20490;-57
2022/09/04 12:17:18;;;;;;;4.05;2.90;;;;;;;21.04;54.88;101808.03;4986183;28;20844;-57
2022/09/04 12:20:15;;;;;;;4.25;3.40;;;;;;;21.25;54.74;101806.88;4989414;28;20762;-57
2022/09/04 12:23:11;;;;;;;3.97;3.17;;;;;;;21.35;54.44;101801.88;4988265;28;20417;-55
2022/09/04 12:25:45;;;;;;;3.35;3.03;;;;;;;21.37;54.03;101803.31;4988201;28;20811;-57
2022/09/04 12:28:39;;;;;;;4.50;3.08;;;;;;;21.27;54.50;101804.81;4989831;28;20417;-57
2022/09/04 12:31:32;;;;;;;5.07;3.20;;;;;;;21.36;54.29;101803.53;4989429;28;20776;-56
2022/09/04 12:34:16;;;;;;;3.92;3.13;;;;;;;21.46;53.48;101809.31;4987559;28;20394;-58
2022/09/04 12:36:51;;;;;;;4.30;3.20;;;;;;;21.48;53.71;101809.09;4987055;28;20394;-57
2022/09/04 12:39:44;;;;;;;3.13;2.83;;;;;;;21.56;53.35;101808.84;4989584;28;20400;-57
2022/09/04 12:42:35;;;;;;;9.70;3.80;;;;;;;21.58;53.20;101806.75;4985958;28;20398;-57
2022/09/04 12:45:20;;;;;;;3.95;3.25;;;;;;;21.53;53.29;101807.38;4989498;28;20386;-57
2022/09/04 12:47:50;;;;;;;6.45;3.78;;;;;;;21.58;53.38;101812.97;4989054;28;20435;-59
2022/09/04 12:50:31;;;;;;;3.40;3.00;;;;;;;21.56;53.58;101816.94;4989809;28;20394;-57
2022/09/04 12:53:11;;;;;;;4.63;2.90;;;;;;;21.65;53.23;101812.94;4989018;28;20373;-57
2022/09/04 12:56:11;;;;;;;9.15;2.92;;;;;;;21.77;53.19;101811.22;4989170;28;20887;-58
2022/09/04 12:58:58;;;;;;;3.53;3.15;;;;;;;21.74;52.86;101810.81;4989391;28;20377;-57
2022/09/04 13:01:52;;;;;;;4.80;2.85;;;;;;;21.84;52.67;101803.06;4989586;28;20467;-57
2022/09/04 13:04:30;;;;;;;3.42;3.15;;;;;;;21.76;52.89;101793.34;4989905;28;20429;-56
2022/09/04 13:06:55;;;;;;;3.35;3.00;;;;;;;21.85;52.98;101787.69;4990172;28;20397;-57
2022/09/04 13:09:45;;;;;;;3.20;2.80;;;;;;;21.96;52.94;101782.41;4989971;28;20409;-57
2022/09/04 13:12:50;;;;;;;4.23;2.73;;;;;;;22.07;52.64;101783.56;4989915;28;20396;-57
2022/09/04 13:15:21;;;;;;;4.90;3.10;;;;;;;22.13;52.46;101785.38;4992836;28;20408;-57
2022/09/04 13:17:58;;;;;;;3.05;2.75;;;;;;;22.04;52.35;101796.66;4982291;28;20476;-58
2022/09/04 13:20:53;;;;;;;3.80;3.13;;;;;;;21.99;52.23;101789.25;4981377;28;20446;-56
2022/09/04 13:23:25;;;;;;;4.28;2.72;;;;;;;22.06;52.19;101784.63;4981843;28;20453;-55
2022/09/04 13:26:19;;;;;;;3.60;2.75;;;;;;;22.11;52.47;101783.94;4979649;28;20410;-56
2022/09/04 13:29:21;;;;;;;4.17;2.90;;;;;;;22.11;52.50;101782.09;4975212;28;20883;-56
2022/09/04 13:31:52;;;;;;;4.57;2.65;;;;;;;22.08;52.33;101777.13;4983151;28;20486;-56
2022/09/04 13:35:07;;;;;;;3.83;2.60;;;;;;;22.03;52.46;101770.72;4982114;28;20478;-58